Weather at Macagua Airport

Public forecast

Using degrees Celsius for public forecast. Weather courtesy of forecast.io.

Closest aviation weather report (METAR) to Macagua Airport

Report is more than 6 hours old.

Closest report is General Manuel Carlos Piar International Airport, 5.7 nm (10.5 km) W. Retrieved 2016/04/05 16:00 UTC (6 years ago):

SVPR 051600Z 02008KT 9999 BKN020 XX/XX Q1016

Closest aviation forecast (TAF) to Macagua Airport

Closest forecast is General José Antonio Anzoategui International Airport, 162.9 nm (301.7 km) NW. Retrieved 2022/08/13 18:16 UTC (49 minutes ago):

TAF SVBC 131600Z 1318/1418 07005KT 9999 BKN060 TX33/1318Z TN22/1407Z TEMPO 1317/1322 06003KT 9000 -DZ SCT013 SCT070